Tesshoumaru — JD3071 — position and weather

sailwx.info

Track history (hours):
 
Tides and Currents Weather Stations Pressure Air Temp Water Temp Dewpoint Dewpoint Depression Visibility Wind Speed Wind Dir Waves Ship Positions

Tesshoumaru

Last reported at 2018-Jan-22 01:52 UTC. Time now 2018-Jan-22 15:57 UTC.
Position N 35°40' E 139°59'.

Length 76 m; draft 4.5 m.

Type: Cargo ship. MMSI: 431001353.

Date/timePositionNaut miles runAvg speedWind from/ knotsBaromVisibWave heightAir tempDewpointWater temp
2018-Jan-22 01:52N 35°40' E 139°59'2 0.2
2018-Jan-21 17:06N 35°38' E 139°58'0 2.1
2018-Jan-21 16:58N 35°38' E 139°58'612.3
2018-Jan-21 16:28N 35°32' E 139°54'612.6
2018-Jan-21 16:01N 35°28' E 139°50'612.1
2018-Jan-21 15:31N 35°23' E 139°46'611.2
2018-Jan-21 15:00N 35°17' E 139°45'611.3
2018-Jan-21 14:31N 35°12' E 139°47'612.2
2018-Jan-21 14:00N 35°06' E 139°44'612.5
2018-Jan-21 13:30N 35°02' E 139°38'713.2
2018-Jan-21 13:00N 34°58' E 139°32'814.9
2018-Jan-21 12:28N 34°53' E 139°24'714.8
2018-Jan-21 11:59N 34°49' E 139°17'814.6
2018-Jan-21 11:28N 34°44' E 139°10'714.7
2018-Jan-21 11:00N 34°40' E 139°03'712.7
2018-Jan-21 10:28N 34°36' E 138°57'612.9
2018-Jan-21 10:00N 34°34' E 138°50'612.5
2018-Jan-21 09:29N 34°32' E 138°42'712.9
2018-Jan-21 08:59N 34°31' E 138°35'613.1
2018-Jan-21 08:30N 34°29' E 138°27'813.2
2018-Jan-21 07:53N 34°28' E 138°18'613.4
2018-Jan-21 07:27N 34°27' E 138°11'16011.2
2018-Jan-20 17:11N 33°52' E 135°02'313.8
2018-Jan-20 17:00N 33°54' E 134°60'713.3
2018-Jan-20 16:29N 33°60' E 134°54'613.1
2018-Jan-20 16:00N 34°04' E 134°49'713.5
2018-Jan-20 15:30N 34°09' E 134°44'714.4
2018-Jan-20 15:01N 34°15' E 134°38'713.5
2018-Jan-20 14:30N 34°18' E 134°31'613.0
2018-Jan-20 14:00N 34°20' E 134°24'712.7
2018-Jan-20 13:28N 34°23' E 134°16'612.1
2018-Jan-20 13:00N 34°25' E 134°10'7511.1
2018-Jan-20 06:13N 34°03' E 132°43'312.4
2018-Jan-20 06:00N 34°02' E 132°40'811.9
2018-Jan-20 05:20N 33°57' E 132°32'1511.9
2018-Jan-20 04:06N 33°50' E 132°17'1013.0
2018-Jan-20 03:20N 33°46' E 132°06'411.5
2018-Jan-20 03:00N 33°47' E 132°01'813.4
2018-Jan-20 02:26N 33°54' E 131°57'4 9.0
2018-Jan-20 02:00N 33°57' E 131°56'0 0.0
2018-Jan-20 01:30N 33°57' E 131°56'0 0.0
2018-Jan-20 01:00N 33°57' E 131°56'0 0.1
2018-Jan-20 00:30N 33°57' E 131°56'0 0.0
2018-Jan-19 23:59N 33°57' E 131°56'0 0.0
2018-Jan-19 15:11N 33°57' E 131°56'0 0.0
2018-Jan-19 14:47N 33°57' E 131°56'0 0.0
2018-Jan-19 14:29N 33°57' E 131°56'0 0.0
2018-Jan-19 13:59N 33°57' E 131°56'0 0.0
2018-Jan-19 12:47N 33°57' E 131°56'0 0.0
2018-Jan-19 12:05N 33°57' E 131°56'0 0.5
2018-Jan-19 11:59N 33°57' E 131°56'0 0.2
2018-Jan-19 11:20N 33°57' E 131°56'0 0.1
2018-Jan-19 10:59N 33°57' E 131°56'0 0.0
2018-Jan-19 10:29N 33°57' E 131°56'0 0.1
2018-Jan-19 09:53N 33°57' E 131°56'0 0.1
2018-Jan-19 09:29N 33°57' E 131°56'0 0.0
2018-Jan-19 08:56N 33°57' E 131°56'0 0.0
2018-Jan-19 08:29N 33°57' E 131°56'0 0.0
2018-Jan-19 07:59N 33°57' E 131°56'0 0.0
2018-Jan-19 07:29N 33°57' E 131°56'0 0.1
2018-Jan-19 06:59N 33°57' E 131°56'0 0.0
2018-Jan-19 06:29N 33°57' E 131°56'0 0.0
2018-Jan-19 05:53N 33°57' E 131°56'0 0.1
2018-Jan-19 05:26N 33°57' E 131°56'0 0.1
2018-Jan-19 04:59N 33°57' E 131°56'0 0.1
2018-Jan-19 04:30N 33°57' E 131°56'510.0
2018-Jan-19 03:58N 33°52' E 131°58'613.0
2018-Jan-19 03:28N 33°47' E 132°02'612.5
2018-Jan-19 03:00N 33°48' E 132°08'613.0
2018-Jan-19 02:30N 33°50' E 132°16'1012.5
2018-Jan-19 01:45N 33°53' E 132°27'612.4
2018-Jan-19 01:17N 33°57' E 132°32'411.9
2018-Jan-19 00:56N 33°60' E 132°35'512.4
2018-Jan-19 00:30N 34°03' E 132°41'7212.1
2018-Jan-18 18:32N 34°27' E 134°03'011.9
2018-Jan-18 18:30N 34°27' E 134°04'711.9
2018-Jan-18 17:53N 34°25' E 134°12'411.6
2018-Jan-18 17:30N 34°25' E 134°17'612.8
2018-Jan-18 16:59N 34°26' E 134°25'613.5
2018-Jan-18 16:31N 34°28' E 134°32'713.3
2018-Jan-18 16:00N 34°31' E 134°40'713.3
2018-Jan-18 15:31N 34°33' E 134°47'713.3
2018-Jan-18 15:00N 34°36' E 134°55'612.4
2018-Jan-18 14:30N 34°37' E 135°02'713.3
2018-Jan-18 14:01N 34°37' E 135°10'713.8
2018-Jan-18 13:31N 34°38' E 135°19'612.9
2018-Jan-18 13:00N 34°39' E 135°26'1 2.8
2018-Jan-18 12:30N 34°38' E 135°28'0 0.0
2018-Jan-18 12:00N 34°38' E 135°28'0 0.0
2018-Jan-18 11:30N 34°38' E 135°28'0 0.0
2018-Jan-18 11:01N 34°38' E 135°28'0 0.0
2018-Jan-18 10:30N 34°38' E 135°28'0 0.0
2018-Jan-18 10:00N 34°38' E 135°28'0 0.0
2018-Jan-18 09:31N 34°38' E 135°28'0 0.0
2018-Jan-18 09:01N 34°38' E 135°28'0 0.0
2018-Jan-18 08:30N 34°38' E 135°28'0 0.0
2018-Jan-18 08:00N 34°38' E 135°28'0 0.0
2018-Jan-18 07:30N 34°38' E 135°28'0 0.0
2018-Jan-18 07:00N 34°38' E 135°28'0 0.0
2018-Jan-18 06:30N 34°38' E 135°28'0 0.0
2018-Jan-18 06:01N 34°38' E 135°28'0 0.0
2018-Jan-18 05:30N 34°38' E 135°28'0 0.0
2018-Jan-18 05:00N 34°38' E 135°28'0 0.0
2018-Jan-18 04:30N 34°38' E 135°28'0 0.0
2018-Jan-18 04:00N 34°38' E 135°28'0 0.0
2018-Jan-18 03:30N 34°38' E 135°28'0 0.0
2018-Jan-18 03:00N 34°38' E 135°28'0 0.0
2018-Jan-18 02:30N 34°38' E 135°28'0 0.0
2018-Jan-18 02:00N 34°38' E 135°28'0 0.0
2018-Jan-18 01:31N 34°38' E 135°28'0 0.0
2018-Jan-18 01:01N 34°38' E 135°28'0 0.0
2018-Jan-18 00:00N 34°38' E 135°28'0 0.0
2018-Jan-17 23:58N 34°38' E 135°28'  
2018-Jan-12 15:01N 35°03' E 136°53'0 0.0
2018-Jan-12 14:30N 35°03' E 136°53'0 0.0
2018-Jan-12 14:01N 35°03' E 136°53'0 0.0
2018-Jan-12 13:30N 35°03' E 136°53'0 0.0
2018-Jan-12 13:00N 35°03' E 136°53'0 0.0
2018-Jan-12 12:30N 35°03' E 136°53'0 0.0
2018-Jan-12 12:00N 35°03' E 136°53'0 0.1
2018-Jan-12 11:31N 35°03' E 136°53'0 0.0
2018-Jan-12 11:01N 35°03' E 136°53'0 0.1
2018-Jan-12 10:30N 35°03' E 136°53'0 0.0
2018-Jan-12 10:01N 35°03' E 136°53'0 0.0
2018-Jan-12 09:30N 35°03' E 136°53'0 0.0
2018-Jan-12 09:01N 35°03' E 136°53'0 0.0
2018-Jan-12 08:31N 35°03' E 136°53'0 0.0
2018-Jan-12 08:00N 35°03' E 136°53'0 0.1
2018-Jan-12 07:31N 35°03' E 136°53'0 0.2
2018-Jan-12 07:01N 35°03' E 136°53'0 0.0
2018-Jan-12 06:30N 35°03' E 136°53'0 0.0
2018-Jan-12 06:00N 35°03' E 136°53'0 0.0
2018-Jan-12 05:30N 35°03' E 136°53'0 0.0
2018-Jan-12 05:00N 35°03' E 136°53'0 0.0
2018-Jan-12 04:30N 35°03' E 136°53'0 0.0
2018-Jan-12 04:00N 35°03' E 136°53'0 0.0
2018-Jan-12 03:30N 35°03' E 136°53'0 0.0
2018-Jan-12 03:00N 35°03' E 136°53'0 0.0
2018-Jan-12 02:30N 35°03' E 136°53'0 0.0
2018-Jan-12 02:00N 35°03' E 136°53'  
Track history (hours):
 
Tides and Currents Weather Stations Pressure Air Temp Water Temp Dewpoint Dewpoint Depression Visibility Wind Speed Wind Dir Waves Ship Positions

Tesshoumaru

Last reported at 2018-Jan-22 01:52 UTC. Time now 2018-Jan-22 15:57 UTC.
Position N 35°40' E 139°59'.

Length 76 m; draft 4.5 m.

Type: Cargo ship. MMSI: 431001353.

Date/timePositionNaut miles runAvg speedWind from/ knotsBaromVisibWave heightAir tempDewpointWater temp
2018-Jan-22 01:52N 35°40' E 139°59'2 0.2
2018-Jan-21 17:06N 35°38' E 139°58'0 2.1
2018-Jan-21 16:58N 35°38' E 139°58'612.3
2018-Jan-21 16:28N 35°32' E 139°54'612.6
2018-Jan-21 16:01N 35°28' E 139°50'612.1
2018-Jan-21 15:31N 35°23' E 139°46'611.2
2018-Jan-21 15:00N 35°17' E 139°45'611.3
2018-Jan-21 14:31N 35°12' E 139°47'612.2
2018-Jan-21 14:00N 35°06' E 139°44'612.5
2018-Jan-21 13:30N 35°02' E 139°38'713.2
2018-Jan-21 13:00N 34°58' E 139°32'814.9
2018-Jan-21 12:28N 34°53' E 139°24'714.8
2018-Jan-21 11:59N 34°49' E 139°17'814.6
2018-Jan-21 11:28N 34°44' E 139°10'714.7
2018-Jan-21 11:00N 34°40' E 139°03'712.7
2018-Jan-21 10:28N 34°36' E 138°57'612.9
2018-Jan-21 10:00N 34°34' E 138°50'612.5
2018-Jan-21 09:29N 34°32' E 138°42'712.9
2018-Jan-21 08:59N 34°31' E 138°35'613.1
2018-Jan-21 08:30N 34°29' E 138°27'813.2
2018-Jan-21 07:53N 34°28' E 138°18'613.4
2018-Jan-21 07:27N 34°27' E 138°11'16011.2
2018-Jan-20 17:11N 33°52' E 135°02'313.8
2018-Jan-20 17:00N 33°54' E 134°60'713.3
2018-Jan-20 16:29N 33°60' E 134°54'613.1
2018-Jan-20 16:00N 34°04' E 134°49'713.5
2018-Jan-20 15:30N 34°09' E 134°44'714.4
2018-Jan-20 15:01N 34°15' E 134°38'713.5
2018-Jan-20 14:30N 34°18' E 134°31'613.0
2018-Jan-20 14:00N 34°20' E 134°24'712.7
2018-Jan-20 13:28N 34°23' E 134°16'612.1
2018-Jan-20 13:00N 34°25' E 134°10'7511.1
2018-Jan-20 06:13N 34°03' E 132°43'312.4
2018-Jan-20 06:00N 34°02' E 132°40'811.9
2018-Jan-20 05:20N 33°57' E 132°32'1511.9
2018-Jan-20 04:06N 33°50' E 132°17'1013.0
2018-Jan-20 03:20N 33°46' E 132°06'411.5
2018-Jan-20 03:00N 33°47' E 132°01'813.4
2018-Jan-20 02:26N 33°54' E 131°57'4 9.0
2018-Jan-20 02:00N 33°57' E 131°56'0 0.0
2018-Jan-20 01:30N 33°57' E 131°56'0 0.0
2018-Jan-20 01:00N 33°57' E 131°56'0 0.1
2018-Jan-20 00:30N 33°57' E 131°56'0 0.0
2018-Jan-19 23:59N 33°57' E 131°56'0 0.0
2018-Jan-19 15:11N 33°57' E 131°56'0 0.0
2018-Jan-19 14:47N 33°57' E 131°56'0 0.0
2018-Jan-19 14:29N 33°57' E 131°56'0 0.0
2018-Jan-19 13:59N 33°57' E 131°56'0 0.0
2018-Jan-19 12:47N 33°57' E 131°56'0 0.0
2018-Jan-19 12:05N 33°57' E 131°56'0 0.5
2018-Jan-19 11:59N 33°57' E 131°56'0 0.2
2018-Jan-19 11:20N 33°57' E 131°56'0 0.1
2018-Jan-19 10:59N 33°57' E 131°56'0 0.0
2018-Jan-19 10:29N 33°57' E 131°56'0 0.1
2018-Jan-19 09:53N 33°57' E 131°56'0 0.1
2018-Jan-19 09:29N 33°57' E 131°56'0 0.0
2018-Jan-19 08:56N 33°57' E 131°56'0 0.0
2018-Jan-19 08:29N 33°57' E 131°56'0 0.0
2018-Jan-19 07:59N 33°57' E 131°56'0 0.0
2018-Jan-19 07:29N 33°57' E 131°56'0 0.1
2018-Jan-19 06:59N 33°57' E 131°56'0 0.0
2018-Jan-19 06:29N 33°57' E 131°56'0 0.0
2018-Jan-19 05:53N 33°57' E 131°56'0 0.1
2018-Jan-19 05:26N 33°57' E 131°56'0 0.1
2018-Jan-19 04:59N 33°57' E 131°56'0 0.1
2018-Jan-19 04:30N 33°57' E 131°56'510.0
2018-Jan-19 03:58N 33°52' E 131°58'613.0
2018-Jan-19 03:28N 33°47' E 132°02'612.5
2018-Jan-19 03:00N 33°48' E 132°08'613.0
2018-Jan-19 02:30N 33°50' E 132°16'1012.5
2018-Jan-19 01:45N 33°53' E 132°27'612.4
2018-Jan-19 01:17N 33°57' E 132°32'411.9
2018-Jan-19 00:56N 33°60' E 132°35'512.4
2018-Jan-19 00:30N 34°03' E 132°41'7212.1
2018-Jan-18 18:32N 34°27' E 134°03'011.9
2018-Jan-18 18:30N 34°27' E 134°04'711.9
2018-Jan-18 17:53N 34°25' E 134°12'411.6
2018-Jan-18 17:30N 34°25' E 134°17'612.8
2018-Jan-18 16:59N 34°26' E 134°25'613.5
2018-Jan-18 16:31N 34°28' E 134°32'713.3
2018-Jan-18 16:00N 34°31' E 134°40'713.3
2018-Jan-18 15:31N 34°33' E 134°47'713.3
2018-Jan-18 15:00N 34°36' E 134°55'612.4
2018-Jan-18 14:30N 34°37' E 135°02'713.3
2018-Jan-18 14:01N 34°37' E 135°10'713.8
2018-Jan-18 13:31N 34°38' E 135°19'612.9
2018-Jan-18 13:00N 34°39' E 135°26'1 2.8
2018-Jan-18 12:30N 34°38' E 135°28'0 0.0
2018-Jan-18 12:00N 34°38' E 135°28'0 0.0
2018-Jan-18 11:30N 34°38' E 135°28'0 0.0
2018-Jan-18 11:01N 34°38' E 135°28'0 0.0
2018-Jan-18 10:30N 34°38' E 135°28'0 0.0
2018-Jan-18 10:00N 34°38' E 135°28'0 0.0
2018-Jan-18 09:31N 34°38' E 135°28'0 0.0
2018-Jan-18 09:01N 34°38' E 135°28'0 0.0
2018-Jan-18 08:30N 34°38' E 135°28'0 0.0
2018-Jan-18 08:00N 34°38' E 135°28'0 0.0
2018-Jan-18 07:30N 34°38' E 135°28'0 0.0
2018-Jan-18 07:00N 34°38' E 135°28'0 0.0
2018-Jan-18 06:30N 34°38' E 135°28'0 0.0
2018-Jan-18 06:01N 34°38' E 135°28'0 0.0
2018-Jan-18 05:30N 34°38' E 135°28'0 0.0
2018-Jan-18 05:00N 34°38' E 135°28'0 0.0
2018-Jan-18 04:30N 34°38' E 135°28'0 0.0
2018-Jan-18 04:00N 34°38' E 135°28'0 0.0
2018-Jan-18 03:30N 34°38' E 135°28'0 0.0
2018-Jan-18 03:00N 34°38' E 135°28'0 0.0
2018-Jan-18 02:30N 34°38' E 135°28'0 0.0
2018-Jan-18 02:00N 34°38' E 135°28'0 0.0
2018-Jan-18 01:31N 34°38' E 135°28'0 0.0
2018-Jan-18 01:01N 34°38' E 135°28'0 0.0
2018-Jan-18 00:00N 34°38' E 135°28'0 0.0
2018-Jan-17 23:58N 34°38' E 135°28'  
2018-Jan-12 15:01N 35°03' E 136°53'0 0.0
2018-Jan-12 14:30N 35°03' E 136°53'0 0.0
2018-Jan-12 14:01N 35°03' E 136°53'0 0.0
2018-Jan-12 13:30N 35°03' E 136°53'0 0.0
2018-Jan-12 13:00N 35°03' E 136°53'0 0.0
2018-Jan-12 12:30N 35°03' E 136°53'0 0.0
2018-Jan-12 12:00N 35°03' E 136°53'0 0.1
2018-Jan-12 11:31N 35°03' E 136°53'0 0.0
2018-Jan-12 11:01N 35°03' E 136°53'0 0.1
2018-Jan-12 10:30N 35°03' E 136°53'0 0.0
2018-Jan-12 10:01N 35°03' E 136°53'0 0.0
2018-Jan-12 09:30N 35°03' E 136°53'0 0.0
2018-Jan-12 09:01N 35°03' E 136°53'0 0.0
2018-Jan-12 08:31N 35°03' E 136°53'0 0.0
2018-Jan-12 08:00N 35°03' E 136°53'0 0.1
2018-Jan-12 07:31N 35°03' E 136°53'0 0.2
2018-Jan-12 07:01N 35°03' E 136°53'0 0.0
2018-Jan-12 06:30N 35°03' E 136°53'0 0.0
2018-Jan-12 06:00N 35°03' E 136°53'0 0.0
2018-Jan-12 05:30N 35°03' E 136°53'0 0.0
2018-Jan-12 05:00N 35°03' E 136°53'0 0.0
2018-Jan-12 04:30N 35°03' E 136°53'0 0.0
2018-Jan-12 04:00N 35°03' E 136°53'0 0.0
2018-Jan-12 03:30N 35°03' E 136°53'0 0.0
2018-Jan-12 03:00N 35°03' E 136°53'0 0.0
2018-Jan-12 02:30N 35°03' E 136°53'0 0.0
2018-Jan-12 02:00N 35°03' E 136°53'  

Dump ship's entire track history